sensor_id;sensor_type;location;lat;lon;timestamp;P1;durP1;ratioP1;P2;durP2;ratioP2
22017;SDS011;11173;51.050;7.108;2022-11-09T00:12:53;0.20;;;0.20;;
22017;SDS011;11173;51.050;7.108;2022-11-09T00:22:53;0.10;;;0.10;;
22017;SDS011;11173;51.050;7.108;2022-11-09T00:32:54;0.10;;;0.10;;
22017;SDS011;11173;51.050;7.108;2022-11-09T00:42:55;0.20;;;0.20;;
22017;SDS011;11173;51.050;7.108;2022-11-09T00:52:55;0.65;;;0.20;;
22017;SDS011;11173;51.050;7.108;2022-11-09T01:02:55;0.20;;;0.20;;
22017;SDS011;11173;51.050;7.108;2022-11-09T01:22:56;0.25;;;0.25;;
22017;SDS011;11173;51.050;7.108;2022-11-09T01:42:56;0.32;;;0.30;;
22017;SDS011;11173;51.050;7.108;2022-11-09T02:03:17;0.30;;;0.20;;
22017;SDS011;11173;51.050;7.108;2022-11-09T02:13:21;0.38;;;0.30;;
22017;SDS011;11173;51.050;7.108;2022-11-09T02:23:25;0.17;;;0.13;;
22017;SDS011;11173;51.050;7.108;2022-11-09T02:33:26;0.20;;;0.20;;
22017;SDS011;11173;51.050;7.108;2022-11-09T02:43:26;0.05;;;0.05;;
22017;SDS011;11173;51.050;7.108;2022-11-09T03:23:28;0.20;;;0.20;;
22017;SDS011;11173;51.050;7.108;2022-11-09T03:43:29;0.20;;;0.20;;
22017;SDS011;11173;51.050;7.108;2022-11-09T04:03:29;0.10;;;0.10;;
22017;SDS011;11173;51.050;7.108;2022-11-09T04:23:30;0.35;;;0.20;;
22017;SDS011;11173;51.050;7.108;2022-11-09T04:43:30;0.35;;;0.20;;
22017;SDS011;11173;51.050;7.108;2022-11-09T04:53:31;0.10;;;0.10;;
22017;SDS011;11173;51.050;7.108;2022-11-09T05:03:32;0.00;;;0.00;;
22017;SDS011;11173;51.050;7.108;2022-11-09T05:13:33;0.25;;;0.13;;
22017;SDS011;11173;51.050;7.108;2022-11-09T05:23:33;0.20;;;0.20;;
22017;SDS011;11173;51.050;7.108;2022-11-09T05:33:53;0.10;;;0.10;;
22017;SDS011;11173;51.050;7.108;2022-11-09T05:43:54;0.52;;;0.20;;
22017;SDS011;11173;51.050;7.108;2022-11-09T05:53:54;0.43;;;0.20;;
22017;SDS011;11173;51.050;7.108;2022-11-09T06:13:55;0.20;;;0.20;;
22017;SDS011;11173;51.050;7.108;2022-11-09T06:23:58;0.10;;;0.10;;
22017;SDS011;11173;51.050;7.108;2022-11-09T06:33:59;0.82;;;0.50;;
22017;SDS011;11173;51.050;7.108;2022-11-09T06:53:59;1.80;;;1.10;;
22017;SDS011;11173;51.050;7.108;2022-11-09T07:14:00;0.30;;;0.20;;
22017;SDS011;11173;51.050;7.108;2022-11-09T07:24:01;0.10;;;0.10;;
22017;SDS011;11173;51.050;7.108;2022-11-09T07:44:04;0.17;;;0.17;;
22017;SDS011;11173;51.050;7.108;2022-11-09T07:54:04;0.20;;;0.20;;
22017;SDS011;11173;51.050;7.108;2022-11-09T08:04:05;0.17;;;0.10;;
22017;SDS011;11173;51.050;7.108;2022-11-09T08:34:09;0.10;;;0.10;;
22017;SDS011;11173;51.050;7.108;2022-11-09T08:44:13;0.22;;;0.10;;
22017;SDS011;11173;51.050;7.108;2022-11-09T08:54:14;0.10;;;0.10;;
22017;SDS011;11173;51.050;7.108;2022-11-09T09:04:17;0.50;;;0.20;;
22017;SDS011;11173;51.050;7.108;2022-11-09T09:14:17;0.38;;;0.20;;
22017;SDS011;11173;51.050;7.108;2022-11-09T09:24:17;0.28;;;0.20;;
22017;SDS011;11173;51.050;7.108;2022-11-09T09:54:40;0.28;;;0.25;;
22017;SDS011;11173;51.050;7.108;2022-11-09T10:04:43;0.50;;;0.30;;
22017;SDS011;11173;51.050;7.108;2022-11-09T10:14:50;0.57;;;0.30;;
22017;SDS011;11173;51.050;7.108;2022-11-09T10:25:14;0.43;;;0.20;;
22017;SDS011;11173;51.050;7.108;2022-11-09T10:35:29;0.45;;;0.20;;
22017;SDS011;11173;51.050;7.108;2022-11-09T10:45:35;0.17;;;0.17;;
22017;SDS011;11173;51.050;7.108;2022-11-09T10:55:37;0.50;;;0.25;;
22017;SDS011;11173;51.050;7.108;2022-11-09T11:05:37;1.05;;;0.30;;
22017;SDS011;11173;51.050;7.108;2022-11-09T11:15:39;1.75;;;0.43;;
22017;SDS011;11173;51.050;7.108;2022-11-09T11:46:40;1.05;;;0.30;;
22017;SDS011;11173;51.050;7.108;2022-11-09T11:56:46;1.20;;;0.57;;
22017;SDS011;11173;51.050;7.108;2022-11-09T12:07:00;1.02;;;0.43;;
22017;SDS011;11173;51.050;7.108;2022-11-09T12:37:37;2.00;;;0.30;;
22017;SDS011;11173;51.050;7.108;2022-11-09T12:47:44;0.73;;;0.30;;
22017;SDS011;11173;51.050;7.108;2022-11-09T12:57:45;1.27;;;0.50;;
22017;SDS011;11173;51.050;7.108;2022-11-09T13:18:45;2.55;;;0.60;;
22017;SDS011;11173;51.050;7.108;2022-11-09T13:38:29;2.83;;;0.85;;
22017;SDS011;11173;51.050;7.108;2022-11-09T13:58:41;1.00;;;0.52;;
22017;SDS011;11173;51.050;7.108;2022-11-09T14:08:42;3.47;;;0.88;;
22017;SDS011;11173;51.050;7.108;2022-11-09T14:18:49;3.35;;;0.75;;
22017;SDS011;11173;51.050;7.108;2022-11-09T14:29:21;2.45;;;0.68;;
22017;SDS011;11173;51.050;7.108;2022-11-09T14:39:27;2.08;;;0.47;;
22017;SDS011;11173;51.050;7.108;2022-11-09T14:49:32;1.77;;;0.40;;
22017;SDS011;11173;51.050;7.108;2022-11-09T14:59:33;1.35;;;0.43;;
22017;SDS011;11173;51.050;7.108;2022-11-09T15:09:40;1.40;;;0.75;;
22017;SDS011;11173;51.050;7.108;2022-11-09T15:19:48;2.28;;;0.50;;
22017;SDS011;11173;51.050;7.108;2022-11-09T15:29:51;1.33;;;0.47;;
22017;SDS011;11173;51.050;7.108;2022-11-09T15:39:52;1.85;;;0.60;;
22017;SDS011;11173;51.050;7.108;2022-11-09T15:49:52;2.42;;;0.60;;
22017;SDS011;11173;51.050;7.108;2022-11-09T16:09:53;1.65;;;0.60;;
22017;SDS011;11173;51.050;7.108;2022-11-09T16:29:54;2.13;;;0.60;;
22017;SDS011;11173;51.050;7.108;2022-11-09T16:39:54;0.85;;;0.38;;
22017;SDS011;11173;51.050;7.108;2022-11-09T16:49:57;0.40;;;0.20;;
22017;SDS011;11173;51.050;7.108;2022-11-09T17:00:18;1.77;;;0.60;;
22017;SDS011;11173;51.050;7.108;2022-11-09T17:10:43;1.75;;;0.57;;
22017;SDS011;11173;51.050;7.108;2022-11-09T17:21:08;1.40;;;0.60;;
22017;SDS011;11173;51.050;7.108;2022-11-09T17:31:30;1.10;;;0.40;;
22017;SDS011;11173;51.050;7.108;2022-11-09T17:41:50;0.52;;;0.40;;
22017;SDS011;11173;51.050;7.108;2022-11-09T17:52:11;0.30;;;0.30;;
22017;SDS011;11173;51.050;7.108;2022-11-09T18:02:32;2.15;;;0.60;;
22017;SDS011;11173;51.050;7.108;2022-11-09T18:12:54;2.55;;;0.75;;
22017;SDS011;11173;51.050;7.108;2022-11-09T18:23:15;0.63;;;0.55;;
22017;SDS011;11173;51.050;7.108;2022-11-09T18:33:36;0.82;;;0.45;;
22017;SDS011;11173;51.050;7.108;2022-11-09T18:43:58;1.50;;;0.50;;
22017;SDS011;11173;51.050;7.108;2022-11-09T18:54:18;0.88;;;0.70;;
22017;SDS011;11173;51.050;7.108;2022-11-09T19:04:39;0.98;;;0.70;;
22017;SDS011;11173;51.050;7.108;2022-11-09T19:15:01;3.08;;;0.90;;
22017;SDS011;11173;51.050;7.108;2022-11-09T19:25:22;1.85;;;0.85;;
22017;SDS011;11173;51.050;7.108;2022-11-09T19:35:42;1.30;;;0.43;;
22017;SDS011;11173;51.050;7.108;2022-11-09T19:46:03;2.03;;;1.08;;
22017;SDS011;11173;51.050;7.108;2022-11-09T19:56:24;2.95;;;1.00;;
22017;SDS011;11173;51.050;7.108;2022-11-09T20:06:47;1.10;;;0.50;;
22017;SDS011;11173;51.050;7.108;2022-11-09T20:17:07;1.92;;;0.50;;
22017;SDS011;11173;51.050;7.108;2022-11-09T20:27:28;1.33;;;0.63;;
22017;SDS011;11173;51.050;7.108;2022-11-09T20:37:49;0.82;;;0.43;;
22017;SDS011;11173;51.050;7.108;2022-11-09T20:48:10;0.88;;;0.50;;
22017;SDS011;11173;51.050;7.108;2022-11-09T20:58:30;1.63;;;0.63;;
22017;SDS011;11173;51.050;7.108;2022-11-09T21:08:52;0.93;;;0.47;;
22017;SDS011;11173;51.050;7.108;2022-11-09T21:19:15;0.90;;;0.60;;
22017;SDS011;11173;51.050;7.108;2022-11-09T21:29:36;1.23;;;0.73;;
22017;SDS011;11173;51.050;7.108;2022-11-09T21:40:11;1.38;;;0.60;;
22017;SDS011;11173;51.050;7.108;2022-11-09T21:50:32;1.98;;;0.80;;
22017;SDS011;11173;51.050;7.108;2022-11-09T22:00:53;1.58;;;0.75;;
22017;SDS011;11173;51.050;7.108;2022-11-09T22:11:15;1.23;;;0.52;;
22017;SDS011;11173;51.050;7.108;2022-11-09T22:21:39;0.82;;;0.40;;
22017;SDS011;11173;51.050;7.108;2022-11-09T22:32:01;1.08;;;0.43;;
22017;SDS011;11173;51.050;7.108;2022-11-09T22:42:22;0.68;;;0.50;;
22017;SDS011;11173;51.050;7.108;2022-11-09T22:52:43;1.30;;;0.50;;
22017;SDS011;11173;51.050;7.108;2022-11-09T23:03:04;0.60;;;0.40;;
22017;SDS011;11173;51.050;7.108;2022-11-09T23:13:24;1.75;;;0.43;;
22017;SDS011;11173;51.050;7.108;2022-11-09T23:23:45;0.77;;;0.50;;
22017;SDS011;11173;51.050;7.108;2022-11-09T23:34:07;0.75;;;0.35;;
22017;SDS011;11173;51.050;7.108;2022-11-09T23:44:27;0.55;;;0.40;;
22017;SDS011;11173;51.050;7.108;2022-11-09T23:54:48;0.50;;;0.40;;
